createdAt,value
2019-04-25T00:00:55.122Z,0.47
2019-04-25T00:03:42.537Z,0.47
2019-04-25T00:06:14.789Z,0.60
2019-04-25T00:08:46.286Z,0.70
2019-04-25T00:11:17.793Z,0.63
2019-04-25T00:13:49.367Z,0.63
2019-04-25T00:16:22.592Z,0.47
2019-04-25T00:18:54.058Z,0.70
2019-04-25T00:21:26.891Z,0.70
2019-04-25T00:23:58.750Z,0.63
2019-04-25T00:26:31.842Z,0.80
2019-04-25T00:29:04.030Z,0.87
2019-04-25T00:31:35.428Z,0.63
2019-04-25T00:34:07.186Z,0.87
2019-04-25T00:36:39.120Z,0.80
2019-04-25T00:39:11.844Z,1.03
2019-04-25T00:41:45.160Z,0.90
2019-04-25T00:44:16.204Z,0.70
2019-04-25T00:46:49.232Z,1.03
2019-04-25T00:49:22.035Z,1.00
2019-04-25T00:51:53.830Z,0.90
2019-04-25T00:54:25.033Z,0.90
2019-04-25T00:56:56.425Z,0.80
2019-04-25T00:59:32.051Z,2.03
2019-04-25T01:02:21.487Z,0.90
2019-04-25T01:04:54.158Z,1.03
2019-04-25T01:07:24.742Z,1.10
2019-04-25T01:09:56.306Z,1.27
2019-04-25T01:12:27.473Z,1.47
2019-04-25T01:14:58.901Z,0.90
2019-04-25T01:17:31.507Z,1.03
2019-04-25T01:20:07.748Z,0.80
2019-04-25T01:22:38.994Z,0.90
2019-04-25T01:25:11.037Z,0.77
2019-04-25T01:27:43.322Z,0.70
2019-04-25T01:30:16.152Z,0.60
2019-04-25T01:32:48.278Z,0.80
2019-04-25T01:35:36.741Z,0.90
2019-04-25T01:38:15.423Z,0.90
2019-04-25T01:40:51.333Z,0.90
2019-04-25T01:43:24.299Z,0.90
2019-04-25T01:45:56.573Z,0.70
2019-04-25T01:48:27.807Z,0.77
2019-04-25T01:50:58.552Z,0.90
2019-04-25T01:53:30.109Z,1.10
2019-04-25T01:56:05.878Z,0.83
2019-04-25T01:58:34.775Z,0.93
2019-04-25T02:01:06.097Z,0.70
2019-04-25T02:03:37.552Z,1.10
2019-04-25T02:06:08.792Z,0.80
2019-04-25T02:08:41.371Z,1.20
2019-04-25T02:11:24.042Z,1.13
2019-04-25T02:13:57.531Z,1.27
2019-04-25T02:16:31.482Z,1.17
2019-04-25T02:19:04.018Z,1.13
2019-04-25T02:21:35.533Z,0.87
2019-04-25T02:24:06.863Z,1.20
2019-04-25T02:26:38.128Z,0.80
2019-04-25T02:29:08.543Z,1.00
2019-04-25T02:31:39.909Z,0.80
2019-04-25T02:34:17.446Z,0.80
2019-04-25T02:36:47.298Z,0.80
2019-04-25T02:39:19.267Z,0.83
2019-04-25T02:41:50.631Z,0.97
2019-04-25T02:44:21.860Z,1.00
2019-04-25T02:47:00.333Z,1.00
2019-04-25T02:49:38.668Z,0.93
2019-04-25T02:52:13.012Z,0.90
2019-04-25T02:54:44.909Z,1.10
2019-04-25T02:57:16.017Z,1.80
2019-04-25T02:59:47.156Z,0.80
2019-04-25T03:02:18.653Z,0.93
2019-04-25T03:04:49.770Z,0.80
2019-04-25T03:07:20.018Z,1.00
2019-04-25T03:09:51.655Z,1.07
2019-04-25T03:12:30.739Z,0.97
2019-04-25T03:14:56.180Z,0.70
2019-04-25T03:17:27.265Z,0.80
2019-04-25T03:20:18.596Z,0.90
2019-04-25T03:22:49.799Z,1.00
2019-04-25T03:28:49.638Z,1.00
2019-04-25T03:31:27.185Z,1.20
2019-04-25T03:33:58.183Z,0.97
2019-04-25T03:36:31.168Z,0.90
2019-04-25T03:39:08.744Z,1.00
2019-04-25T03:41:40.171Z,0.93
2019-04-25T03:44:16.937Z,1.00
2019-04-25T03:46:47.367Z,0.90
2019-04-25T03:49:21.950Z,0.90
2019-04-25T03:51:58.508Z,1.27
2019-04-25T03:54:33.423Z,1.23
2019-04-25T03:57:06.655Z,1.10
2019-04-25T03:59:38.602Z,0.93
2019-04-25T04:02:20.336Z,0.90
2019-04-25T04:04:53.770Z,0.97
2019-04-25T04:07:25.423Z,0.90
2019-04-25T04:09:56.514Z,0.90
2019-04-25T04:12:26.801Z,1.10
2019-04-25T04:14:58.382Z,0.97
2019-04-25T04:17:31.183Z,0.80
2019-04-25T04:20:05.629Z,1.07
2019-04-25T04:22:44.475Z,1.17
2019-04-25T04:25:17.353Z,1.60
2019-04-25T04:27:48.506Z,0.87
2019-04-25T04:30:20.053Z,0.70
2019-04-25T04:32:51.239Z,0.87
2019-04-25T04:35:23.479Z,1.30
2019-04-25T04:37:54.827Z,0.83
2019-04-25T04:40:26.342Z,1.47
2019-04-25T04:42:57.557Z,1.00
2019-04-25T04:45:28.899Z,1.00
2019-04-25T04:48:00.127Z,1.00
2019-04-25T04:50:30.570Z,0.90
2019-04-25T04:53:02.011Z,1.10
2019-04-25T04:55:34.334Z,1.40
2019-04-25T04:58:07.487Z,1.30
2019-04-25T05:00:38.757Z,1.33
2019-04-25T05:03:30.445Z,1.27
2019-04-25T05:06:09.153Z,1.60
2019-04-25T05:08:45.295Z,1.03
2019-04-25T05:11:18.121Z,1.23
2019-04-25T05:13:49.665Z,1.03
2019-04-25T05:16:21.682Z,1.37
2019-04-25T05:18:55.338Z,1.10
2019-04-25T05:21:26.585Z,1.60
2019-04-25T05:23:57.904Z,1.40
2019-04-25T05:26:28.941Z,2.00
2019-04-25T05:36:36.532Z,2.30
2019-04-25T05:39:15.623Z,1.60
2019-04-25T05:42:17.145Z,2.10
2019-04-25T05:45:00.336Z,1.20
2019-04-25T05:47:50.088Z,1.30
2019-04-25T05:54:39.921Z,1.30
2019-04-25T06:00:46.616Z,1.40
2019-04-25T06:10:43.881Z,1.93
2019-04-25T06:14:08.212Z,2.67
2019-04-25T06:17:57.131Z,1.30
2019-04-25T06:38:27.248Z,0.93
2019-04-25T06:41:00.354Z,1.73
2019-04-25T06:43:37.584Z,0.90
2019-04-25T06:46:30.649Z,1.30
2019-04-25T06:49:04.738Z,1.40
2019-04-25T06:53:08.420Z,1.53
2019-04-25T06:54:55.847Z,1.10
2019-04-25T06:57:44.097Z,0.83
2019-04-25T07:00:17.174Z,1.00
2019-04-25T07:02:48.287Z,0.70
2019-04-25T07:05:31.146Z,1.20
2019-04-25T07:08:03.333Z,1.20
2019-04-25T07:10:40.922Z,0.83
2019-04-25T07:13:16.537Z,1.07
2019-04-25T07:15:47.582Z,1.20
2019-04-25T07:18:20.312Z,0.70
2019-04-25T07:20:56.961Z,0.90
2019-04-25T07:23:38.262Z,0.90
2019-04-25T07:26:18.678Z,0.80
2019-04-25T07:29:09.868Z,1.00
2019-04-25T07:31:45.588Z,1.10
2019-04-25T07:34:26.512Z,0.77
2019-04-25T07:37:24.177Z,1.37
2019-04-25T07:39:56.895Z,1.00
2019-04-25T07:42:35.450Z,0.80
2019-04-25T07:45:27.006Z,1.10
2019-04-25T07:48:16.769Z,0.93
2019-04-25T07:50:50.842Z,1.17
2019-04-25T07:53:23.737Z,1.27
2019-04-25T07:56:04.238Z,0.80
2019-04-25T07:58:43.645Z,0.80
2019-04-25T08:01:05.500Z,1.00
2019-04-25T08:03:38.234Z,0.77
2019-04-25T08:06:22.037Z,0.90
2019-04-25T08:08:54.441Z,0.90
2019-04-25T08:11:34.139Z,0.57
2019-04-25T08:14:10.740Z,0.90
2019-04-25T08:17:07.675Z,0.77
2019-04-25T08:19:41.935Z,0.63
2019-04-25T08:22:34.521Z,0.60
2019-04-25T08:25:30.745Z,1.03
2019-04-25T08:28:08.150Z,0.70
2019-04-25T08:30:39.384Z,0.90
2019-04-25T08:33:13.885Z,0.70
2019-04-25T08:36:04.318Z,0.70
2019-04-25T08:38:23.747Z,0.90
2019-04-25T08:41:05.389Z,0.50
2019-04-25T08:43:39.154Z,1.00
2019-04-25T08:46:23.454Z,0.70
2019-04-25T08:49:06.282Z,1.00
2019-04-25T08:51:42.100Z,0.80
2019-04-25T08:54:16.302Z,0.77
2019-04-25T08:56:57.882Z,0.53
2019-04-25T08:59:52.842Z,0.70
2019-04-25T09:02:44.720Z,0.83
2019-04-25T09:05:19.733Z,1.47
2019-04-25T09:07:54.687Z,0.70
2019-04-25T09:10:28.548Z,0.57
2019-04-25T09:12:59.647Z,0.50
2019-04-25T09:15:30.739Z,0.80
2019-04-25T09:18:01.935Z,0.70
2019-04-25T09:20:38.058Z,0.50
2019-04-25T09:23:05.034Z,0.70
2019-04-25T09:25:36.811Z,0.70
2019-04-25T09:28:11.553Z,0.70
2019-04-25T09:30:44.916Z,0.60
2019-04-25T09:33:17.023Z,0.47
2019-04-25T09:35:48.147Z,0.97
2019-04-25T09:38:19.209Z,0.53
2019-04-25T09:40:55.947Z,0.70
2019-04-25T09:43:27.005Z,0.73
2019-04-25T09:46:03.268Z,1.03
2019-04-25T09:48:40.293Z,0.70
2019-04-25T09:51:13.575Z,0.70
2019-04-25T09:53:50.982Z,0.93
2019-04-25T09:56:24.654Z,0.57
2019-04-25T09:58:57.271Z,0.70
2019-04-25T10:01:29.124Z,0.90
2019-04-25T10:04:06.225Z,0.60
2019-04-25T10:06:38.898Z,0.50
2019-04-25T10:09:11.104Z,1.00
2019-04-25T10:11:43.963Z,0.60
2019-04-25T10:14:30.001Z,1.00
2019-04-25T10:17:04.491Z,0.70
2019-04-25T10:19:35.751Z,0.53
2019-04-25T10:22:06.916Z,0.90
2019-04-25T10:24:38.512Z,0.80
2019-04-25T10:27:09.568Z,0.80
2019-04-25T10:29:47.278Z,0.90
2019-04-25T10:32:15.077Z,0.80
2019-04-25T10:34:47.929Z,0.70
2019-04-25T10:37:19.103Z,0.70
2019-04-25T10:39:50.237Z,0.72
2019-04-25T10:42:21.418Z,1.20
2019-04-25T10:44:54.006Z,0.88
2019-04-25T10:47:25.249Z,1.00
2019-04-25T10:49:55.913Z,0.80
2019-04-25T10:52:27.477Z,0.80
2019-04-25T10:54:58.462Z,0.80
2019-04-25T10:57:30.087Z,0.60
2019-04-25T11:00:07.505Z,0.70
2019-04-25T11:02:34.434Z,0.70
2019-04-25T11:05:09.672Z,0.70
2019-04-25T11:07:41.958Z,0.90
2019-04-25T11:10:17.214Z,0.80
2019-04-25T11:12:50.929Z,0.95
2019-04-25T11:15:23.393Z,1.05
2019-04-25T11:17:55.071Z,0.70
2019-04-25T11:20:28.588Z,0.82
2019-04-25T11:22:58.822Z,0.80
2019-04-25T11:25:30.080Z,0.82
2019-04-25T11:28:04.829Z,0.85
2019-04-25T11:30:36.263Z,1.15
2019-04-25T11:33:10.323Z,0.70
2019-04-25T11:35:40.906Z,2.55
2019-04-25T11:38:13.846Z,0.75
2019-04-25T11:40:49.331Z,1.22
2019-04-25T11:43:20.008Z,0.70
2019-04-25T11:45:52.185Z,0.85
2019-04-25T11:48:24.332Z,0.90
2019-04-25T11:50:55.944Z,0.80
2019-04-25T11:53:27.302Z,1.02
2019-04-25T11:55:58.608Z,1.12
2019-04-25T11:58:30.351Z,1.57
2019-04-25T12:01:01.617Z,1.00
2019-04-25T12:03:33.641Z,1.75
2019-04-25T12:06:05.174Z,0.75
2019-04-25T12:08:38.144Z,0.85
2019-04-25T12:11:09.250Z,1.00
2019-04-25T12:13:45.983Z,0.70
2019-04-25T12:16:16.533Z,0.90
2019-04-25T12:18:50.152Z,1.10
2019-04-25T12:21:20.562Z,1.20
2019-04-25T12:23:52.020Z,0.90
2019-04-25T12:26:25.881Z,0.80
2019-04-25T12:28:56.614Z,1.00
2019-04-25T12:31:27.602Z,0.98
2019-04-25T12:34:00.798Z,0.80
2019-04-25T12:36:34.073Z,0.70
2019-04-25T12:39:07.177Z,0.80
2019-04-25T12:41:38.786Z,0.60
2019-04-25T12:44:14.437Z,0.60
2019-04-25T12:46:50.536Z,1.00
2019-04-25T12:49:21.668Z,1.15
2019-04-25T12:51:54.910Z,0.70
2019-04-25T12:54:25.902Z,0.70
2019-04-25T12:56:57.395Z,0.90
2019-04-25T12:59:28.598Z,1.02
2019-04-25T13:02:00.928Z,0.75
2019-04-25T13:04:33.152Z,0.70
2019-04-25T13:07:05.432Z,1.12
2019-04-25T13:09:36.464Z,0.85
2019-04-25T13:12:09.095Z,1.20
2019-04-25T13:14:40.102Z,0.80
2019-04-25T13:17:10.314Z,1.00
2019-04-25T13:19:41.638Z,0.98
2019-04-25T13:22:12.791Z,1.10
2019-04-25T13:24:44.349Z,0.93
2019-04-25T13:27:16.966Z,0.75
2019-04-25T13:30:03.135Z,0.80
2019-04-25T13:32:52.616Z,0.80
2019-04-25T13:35:25.675Z,0.87
2019-04-25T13:37:57.524Z,0.90
2019-04-25T13:40:28.812Z,0.80
2019-04-25T13:43:00.094Z,1.00
2019-04-25T13:45:31.434Z,0.80
2019-04-25T13:48:04.702Z,0.93
2019-04-25T13:50:35.239Z,0.77
2019-04-25T13:53:06.254Z,0.90
2019-04-25T13:55:37.507Z,1.10
2019-04-25T13:58:09.177Z,0.90
2019-04-25T14:00:39.261Z,0.93
2019-04-25T14:03:10.638Z,0.95
2019-04-25T14:05:41.659Z,0.82
2019-04-25T14:08:13.141Z,0.70
2019-04-25T14:10:47.387Z,0.70
2019-04-25T14:13:18.789Z,1.00
2019-04-25T14:15:51.411Z,0.70
2019-04-25T14:18:31.502Z,0.78
2019-04-25T14:21:09.985Z,0.70
2019-04-25T14:23:41.095Z,1.20
2019-04-25T14:26:13.175Z,0.72
2019-04-25T14:28:44.435Z,0.98
2019-04-25T14:31:30.438Z,0.70
2019-04-25T14:33:51.712Z,0.85
2019-04-25T14:36:25.800Z,0.70
2019-04-25T14:38:54.591Z,1.10
2019-04-25T14:41:26.099Z,0.78
2019-04-25T14:43:56.993Z,0.80
2019-04-25T14:46:28.277Z,0.90
2019-04-25T14:48:59.177Z,0.90
2019-04-25T14:51:30.697Z,0.82
2019-04-25T14:54:03.295Z,0.85
2019-04-25T14:56:52.454Z,0.70
2019-04-25T14:59:24.439Z,0.82
2019-04-25T15:01:57.441Z,0.95
2019-04-25T15:04:28.480Z,0.90
2019-04-25T15:06:59.616Z,0.90
2019-04-25T15:09:30.915Z,0.60
2019-04-25T15:12:02.115Z,0.95
2019-04-25T15:14:33.518Z,1.00
2019-04-25T15:17:06.294Z,0.85
2019-04-25T15:19:37.220Z,1.02
2019-04-25T15:22:07.588Z,0.68
2019-04-25T15:24:47.615Z,0.70
2019-04-25T15:27:19.266Z,0.85
2019-04-25T15:29:50.748Z,0.85
2019-04-25T15:32:23.301Z,0.90
2019-04-25T15:34:56.261Z,1.00
2019-04-25T15:37:28.907Z,0.90
2019-04-25T15:40:04.226Z,0.80
2019-04-25T15:42:55.467Z,1.00
2019-04-25T15:45:28.614Z,1.22
2019-04-25T15:47:59.650Z,1.00
2019-04-25T15:50:31.856Z,0.90
2019-04-25T15:53:02.845Z,1.00
2019-04-25T15:55:34.800Z,0.98
2019-04-25T15:58:05.805Z,1.30
2019-04-25T16:00:38.908Z,1.20
2019-04-25T16:03:10.004Z,1.20
2019-04-25T16:05:43.466Z,0.95
2019-04-25T16:08:14.872Z,0.82
2019-04-25T16:10:45.956Z,0.75
2019-04-25T16:13:17.198Z,1.15
2019-04-25T16:15:48.178Z,1.10
2019-04-25T16:18:19.638Z,1.00
2019-04-25T16:20:50.619Z,1.32
2019-04-25T16:23:21.892Z,1.00
2019-04-25T16:25:52.898Z,1.20
2019-04-25T16:28:24.226Z,1.25
2019-04-25T16:30:55.336Z,1.10
2019-04-25T16:33:26.455Z,1.17
2019-04-25T16:35:57.524Z,1.10
2019-04-25T16:38:27.771Z,1.10
2019-04-25T16:40:58.961Z,1.40
2019-04-25T16:43:32.271Z,0.83
2019-04-25T16:46:03.536Z,1.10
2019-04-25T16:48:34.457Z,1.10
2019-04-25T16:51:05.842Z,2.20
2019-04-25T16:53:37.827Z,1.53
2019-04-25T16:56:09.217Z,1.40
2019-04-25T16:58:40.797Z,1.50
2019-04-25T17:01:13.401Z,1.60
2019-04-25T17:03:44.862Z,1.82
2019-04-25T17:06:16.067Z,2.27
2019-04-25T17:08:48.486Z,1.85
2019-04-25T17:11:18.622Z,1.80
2019-04-25T17:13:51.439Z,1.70
2019-04-25T17:16:30.684Z,1.30
2019-04-25T17:19:03.671Z,1.40
2019-04-25T17:21:34.801Z,1.30
2019-04-25T17:24:07.749Z,1.98
2019-04-25T17:26:39.514Z,1.30
2019-04-25T17:29:12.660Z,0.97
2019-04-25T17:31:47.878Z,1.90
2019-04-25T17:34:23.950Z,2.23
2019-04-25T17:37:11.324Z,1.47
2019-04-25T17:39:45.563Z,1.07
2019-04-25T17:42:16.560Z,0.90
2019-04-25T17:44:47.719Z,1.10
2019-04-25T17:47:18.670Z,0.83
2019-04-25T17:49:49.818Z,0.90
2019-04-25T17:52:20.889Z,1.13
2019-04-25T17:54:50.909Z,1.00
2019-04-25T17:57:22.098Z,0.97
2019-04-25T17:59:53.120Z,1.60
2019-04-25T18:02:24.307Z,1.30
2019-04-25T18:04:55.172Z,1.90
2019-04-25T18:07:26.538Z,1.30
2019-04-25T18:09:57.464Z,0.97
2019-04-25T18:12:28.490Z,0.83
2019-04-25T18:15:01.085Z,1.13
2019-04-25T18:17:32.320Z,1.50
2019-04-25T18:20:05.554Z,1.50
2019-04-25T18:22:44.165Z,1.00
2019-04-25T18:25:16.763Z,1.33
2019-04-25T18:27:55.027Z,1.33
2019-04-25T18:30:25.939Z,1.17
2019-04-25T18:33:10.068Z,2.17
2019-04-25T18:35:38.849Z,2.40
2019-04-25T18:38:21.946Z,3.33
2019-04-25T18:40:57.826Z,1.33
2019-04-25T18:43:33.233Z,2.67
2019-04-25T18:46:06.096Z,3.27
2019-04-25T18:48:37.046Z,3.90
2019-04-25T18:51:08.306Z,2.93
2019-04-25T18:53:52.844Z,3.00
2019-04-25T18:56:25.604Z,2.33
2019-04-25T18:59:16.213Z,3.00
2019-04-25T19:01:57.691Z,2.90
2019-04-25T19:04:32.801Z,3.43
2019-04-25T19:07:04.073Z,2.90
2019-04-25T19:09:34.960Z,2.80
2019-04-25T19:12:06.099Z,2.67
2019-04-25T19:14:37.020Z,2.47
2019-04-25T19:17:09.601Z,2.43
2019-04-25T19:19:41.106Z,2.57
2019-04-25T19:22:12.321Z,2.50
2019-04-25T19:24:45.057Z,3.27
2019-04-25T19:27:23.577Z,2.50
2019-04-25T19:29:47.921Z,2.33
2019-04-25T19:32:18.783Z,1.60
2019-04-25T19:34:50.818Z,2.00
2019-04-25T19:37:21.747Z,2.60
2019-04-25T19:40:09.665Z,3.73
2019-04-25T19:42:51.191Z,6.00
2019-04-25T19:45:22.379Z,1.80
2019-04-25T19:47:53.253Z,1.60
2019-04-25T19:50:24.279Z,1.77
2019-04-25T19:52:55.210Z,1.73
2019-04-25T19:55:26.322Z,1.67
2019-04-25T19:57:57.270Z,2.70
2019-04-25T20:00:28.399Z,3.30
2019-04-25T20:03:03.621Z,2.20
2019-04-25T20:05:35.267Z,1.63
2019-04-25T20:08:25.970Z,1.80
2019-04-25T20:11:03.869Z,1.80
2019-04-25T20:13:35.013Z,2.27
2019-04-25T20:16:05.950Z,2.07
2019-04-25T20:18:37.112Z,1.80
2019-04-25T20:21:08.013Z,1.70
2019-04-25T20:23:39.260Z,1.70
2019-04-25T20:26:10.141Z,1.50
2019-04-25T20:28:42.689Z,1.30
2019-04-25T20:31:13.624Z,2.90
2019-04-25T20:33:45.574Z,1.83
2019-04-25T20:36:17.975Z,1.80
2019-04-25T20:38:49.276Z,1.80
2019-04-25T20:41:20.320Z,5.30
2019-04-25T20:43:52.814Z,1.80
2019-04-25T20:46:23.837Z,1.60
2019-04-25T20:48:54.400Z,1.63
2019-04-25T20:51:25.704Z,1.70
2019-04-25T20:53:57.082Z,2.20
2019-04-25T20:56:28.448Z,3.40
2019-04-25T20:58:59.302Z,1.80
2019-04-25T21:01:30.601Z,2.00
2019-04-25T21:04:12.682Z,1.83
2019-04-25T21:06:41.035Z,1.87
2019-04-25T21:09:11.860Z,1.63
2019-04-25T21:11:42.930Z,1.50
2019-04-25T21:14:15.380Z,2.17
2019-04-25T21:16:48.061Z,2.00
2019-04-25T21:19:26.040Z,2.40
2019-04-25T21:21:58.714Z,1.80
2019-04-25T21:24:29.765Z,1.40
2019-04-25T21:27:00.056Z,1.37
2019-04-25T21:29:32.167Z,3.50
2019-04-25T21:32:03.132Z,1.60
2019-04-25T21:34:34.412Z,1.90
2019-04-25T21:37:05.662Z,1.37
2019-04-25T21:39:40.002Z,1.80
2019-04-25T21:42:28.350Z,1.63
2019-04-25T21:45:00.469Z,1.50
2019-04-25T21:47:31.436Z,1.40
2019-04-25T21:50:03.109Z,1.60
2019-04-25T21:52:34.450Z,1.70
2019-04-25T21:55:06.995Z,1.80
2019-04-25T21:57:38.020Z,1.57
2019-04-25T22:00:11.932Z,1.20
2019-04-25T22:02:42.970Z,1.33
2019-04-25T22:05:13.431Z,1.40
2019-04-25T22:07:45.005Z,1.40
2019-04-25T22:10:16.458Z,1.40
2019-04-25T22:12:47.473Z,1.13
2019-04-25T22:15:18.603Z,1.57
2019-04-25T22:17:49.823Z,1.33
2019-04-25T22:20:20.689Z,1.27
2019-04-25T22:22:54.341Z,1.10
2019-04-25T22:25:25.198Z,1.40
2019-04-25T22:27:57.693Z,1.20
2019-04-25T22:30:29.510Z,1.20
2019-04-25T22:33:11.161Z,1.80
2019-04-25T22:35:43.745Z,1.10
2019-04-25T22:38:14.997Z,1.10
2019-04-25T22:40:45.866Z,1.07
2019-04-25T22:43:16.614Z,0.97
2019-04-25T22:45:48.011Z,1.20
2019-04-25T22:48:20.504Z,1.10
2019-04-25T22:50:51.890Z,1.17
2019-04-25T22:53:26.026Z,1.67
2019-04-25T22:55:55.744Z,1.20
2019-04-25T22:58:26.620Z,1.50
2019-04-25T23:00:57.817Z,1.50
2019-04-25T23:03:33.004Z,1.10
2019-04-25T23:06:04.569Z,1.00
2019-04-25T23:08:36.498Z,1.17
2019-04-25T23:11:08.453Z,0.90
2019-04-25T23:13:39.357Z,1.10
2019-04-25T23:16:09.535Z,1.40
2019-04-25T23:18:40.673Z,1.50
2019-04-25T23:21:12.450Z,1.30
2019-04-25T23:23:43.519Z,1.10
2019-04-25T23:26:21.914Z,1.20
2019-04-25T23:28:55.046Z,1.40
2019-04-25T23:31:33.659Z,0.90
2019-04-25T23:34:06.089Z,0.83
2019-04-25T23:36:37.710Z,1.00
2019-04-25T23:39:09.409Z,0.73
2019-04-25T23:41:40.644Z,0.83
2019-04-25T23:44:12.102Z,0.90
2019-04-25T23:46:43.192Z,0.80
2019-04-25T23:49:14.827Z,1.00
2019-04-25T23:51:45.719Z,1.10
2019-04-25T23:54:17.201Z,1.00
2019-04-25T23:56:48.376Z,1.30
2019-04-25T23:59:19.210Z,0.83
